sensor_id;sensor_type;location;lat;lon;timestamp;P1;durP1;ratioP1;P2;durP2;ratioP2
16352;SDS011;8286;51.274;9.542;2023-02-08T00:01:17;17.03;;;8.37;;
16352;SDS011;8286;51.274;9.542;2023-02-08T00:03:45;16.10;;;8.60;;
16352;SDS011;8286;51.274;9.542;2023-02-08T00:06:12;14.70;;;7.40;;
16352;SDS011;8286;51.274;9.542;2023-02-08T00:08:39;12.00;;;6.40;;
16352;SDS011;8286;51.274;9.542;2023-02-08T00:11:06;15.50;;;7.67;;
16352;SDS011;8286;51.274;9.542;2023-02-08T00:13:34;14.00;;;7.57;;
16352;SDS011;8286;51.274;9.542;2023-02-08T00:16:02;12.70;;;7.60;;
16352;SDS011;8286;51.274;9.542;2023-02-08T00:18:29;16.47;;;7.13;;
16352;SDS011;8286;51.274;9.542;2023-02-08T00:20:56;11.17;;;6.63;;
16352;SDS011;8286;51.274;9.542;2023-02-08T00:23:22;15.97;;;7.47;;
16352;SDS011;8286;51.274;9.542;2023-02-08T00:25:49;12.93;;;7.03;;
16352;SDS011;8286;51.274;9.542;2023-02-08T00:28:16;17.07;;;7.07;;
16352;SDS011;8286;51.274;9.542;2023-02-08T00:30:44;17.10;;;7.03;;
16352;SDS011;8286;51.274;9.542;2023-02-08T00:33:12;14.07;;;7.20;;
16352;SDS011;8286;51.274;9.542;2023-02-08T00:35:38;9.40;;;6.33;;
16352;SDS011;8286;51.274;9.542;2023-02-08T00:38:06;14.20;;;6.90;;
16352;SDS011;8286;51.274;9.542;2023-02-08T00:40:32;11.37;;;6.40;;
16352;SDS011;8286;51.274;9.542;2023-02-08T00:42:59;13.00;;;6.53;;
16352;SDS011;8286;51.274;9.542;2023-02-08T00:45:26;13.57;;;6.90;;
16352;SDS011;8286;51.274;9.542;2023-02-08T00:47:53;10.03;;;6.23;;
16352;SDS011;8286;51.274;9.542;2023-02-08T00:50:21;12.07;;;6.80;;
16352;SDS011;8286;51.274;9.542;2023-02-08T00:52:47;13.07;;;6.43;;
16352;SDS011;8286;51.274;9.542;2023-02-08T00:55:14;12.00;;;6.13;;
16352;SDS011;8286;51.274;9.542;2023-02-08T00:57:40;10.47;;;5.87;;
16352;SDS011;8286;51.274;9.542;2023-02-08T01:00:07;10.87;;;5.80;;
16352;SDS011;8286;51.274;9.542;2023-02-08T01:02:36;11.07;;;5.30;;
16352;SDS011;8286;51.274;9.542;2023-02-08T01:05:03;10.30;;;5.00;;
16352;SDS011;8286;51.274;9.542;2023-02-08T01:07:31;11.80;;;5.43;;
16352;SDS011;8286;51.274;9.542;2023-02-08T01:09:58;12.00;;;6.37;;
16352;SDS011;8286;51.274;9.542;2023-02-08T01:12:25;10.83;;;6.37;;
16352;SDS011;8286;51.274;9.542;2023-02-08T01:14:51;12.60;;;6.23;;
16352;SDS011;8286;51.274;9.542;2023-02-08T01:17:18;12.17;;;5.90;;
16352;SDS011;8286;51.274;9.542;2023-02-08T01:19:44;14.83;;;6.60;;
16352;SDS011;8286;51.274;9.542;2023-02-08T01:22:11;13.77;;;6.07;;
16352;SDS011;8286;51.274;9.542;2023-02-08T01:24:39;13.20;;;5.83;;
16352;SDS011;8286;51.274;9.542;2023-02-08T01:27:05;9.50;;;5.80;;
16352;SDS011;8286;51.274;9.542;2023-02-08T01:29:32;11.87;;;5.97;;
16352;SDS011;8286;51.274;9.542;2023-02-08T01:31:58;8.87;;;4.73;;
16352;SDS011;8286;51.274;9.542;2023-02-08T01:34:25;12.03;;;6.37;;
16352;SDS011;8286;51.274;9.542;2023-02-08T01:36:51;14.80;;;5.93;;
16352;SDS011;8286;51.274;9.542;2023-02-08T01:39:18;12.03;;;5.80;;
16352;SDS011;8286;51.274;9.542;2023-02-08T01:41:45;14.27;;;5.20;;
16352;SDS011;8286;51.274;9.542;2023-02-08T01:47:16;12.87;;;6.60;;
16352;SDS011;8286;51.274;9.542;2023-02-08T01:49:42;10.17;;;6.07;;
16352;SDS011;8286;51.274;9.542;2023-02-08T01:52:10;10.90;;;5.57;;
16352;SDS011;8286;51.274;9.542;2023-02-08T01:54:42;11.47;;;6.70;;
16352;SDS011;8286;51.274;9.542;2023-02-08T01:57:12;12.83;;;6.23;;
16352;SDS011;8286;51.274;9.542;2023-02-08T01:59:40;17.07;;;6.13;;
16352;SDS011;8286;51.274;9.542;2023-02-08T02:02:09;11.90;;;6.43;;
16352;SDS011;8286;51.274;9.542;2023-02-08T02:04:36;12.17;;;6.20;;
16352;SDS011;8286;51.274;9.542;2023-02-08T02:07:03;13.03;;;5.73;;
16352;SDS011;8286;51.274;9.542;2023-02-08T02:09:32;12.73;;;7.07;;
16352;SDS011;8286;51.274;9.542;2023-02-08T02:12:04;10.77;;;5.33;;
16352;SDS011;8286;51.274;9.542;2023-02-08T02:14:33;8.43;;;5.47;;
16352;SDS011;8286;51.274;9.542;2023-02-08T02:16:59;9.90;;;5.07;;
16352;SDS011;8286;51.274;9.542;2023-02-08T02:19:28;11.97;;;6.23;;
16352;SDS011;8286;51.274;9.542;2023-02-08T02:22:01;10.30;;;5.97;;
16352;SDS011;8286;51.274;9.542;2023-02-08T02:24:41;11.47;;;5.90;;
16352;SDS011;8286;51.274;9.542;2023-02-08T02:27:26;11.20;;;5.87;;
16352;SDS011;8286;51.274;9.542;2023-02-08T02:33:09;11.47;;;5.83;;
16352;SDS011;8286;51.274;9.542;2023-02-08T02:35:54;9.87;;;5.63;;
16352;SDS011;8286;51.274;9.542;2023-02-08T02:38:25;11.00;;;4.70;;
16352;SDS011;8286;51.274;9.542;2023-02-08T02:41:03;9.97;;;5.07;;
16352;SDS011;8286;51.274;9.542;2023-02-08T02:43:35;11.60;;;4.73;;
16352;SDS011;8286;51.274;9.542;2023-02-08T02:46:08;11.33;;;5.50;;
16352;SDS011;8286;51.274;9.542;2023-02-08T02:48:47;14.90;;;5.90;;
16352;SDS011;8286;51.274;9.542;2023-02-08T02:51:17;11.10;;;5.30;;
16352;SDS011;8286;51.274;9.542;2023-02-08T02:53:47;9.23;;;5.43;;
16352;SDS011;8286;51.274;9.542;2023-02-08T02:56:18;12.33;;;6.10;;
16352;SDS011;8286;51.274;9.542;2023-02-08T02:58:47;11.27;;;5.33;;
16352;SDS011;8286;51.274;9.542;2023-02-08T03:01:19;11.20;;;5.53;;
16352;SDS011;8286;51.274;9.542;2023-02-08T03:03:51;9.17;;;5.13;;
16352;SDS011;8286;51.274;9.542;2023-02-08T03:06:19;11.90;;;5.50;;
16352;SDS011;8286;51.274;9.542;2023-02-08T03:09:01;16.57;;;5.87;;
16352;SDS011;8286;51.274;9.542;2023-02-08T03:11:34;13.07;;;5.50;;
16352;SDS011;8286;51.274;9.542;2023-02-08T03:14:03;8.47;;;5.10;;
16352;SDS011;8286;51.274;9.542;2023-02-08T03:16:43;11.00;;;5.93;;
16352;SDS011;8286;51.274;9.542;2023-02-08T03:19:21;8.43;;;5.23;;
16352;SDS011;8286;51.274;9.542;2023-02-08T03:21:54;12.83;;;6.37;;
16352;SDS011;8286;51.274;9.542;2023-02-08T03:24:24;12.57;;;6.77;;
16352;SDS011;8286;51.274;9.542;2023-02-08T03:26:55;13.63;;;6.40;;
16352;SDS011;8286;51.274;9.542;2023-02-08T03:29:25;9.77;;;5.00;;
16352;SDS011;8286;51.274;9.542;2023-02-08T03:31:58;12.07;;;5.80;;
16352;SDS011;8286;51.274;9.542;2023-02-08T03:34:29;9.70;;;5.23;;
16352;SDS011;8286;51.274;9.542;2023-02-08T03:36:59;13.07;;;6.00;;
16352;SDS011;8286;51.274;9.542;2023-02-08T03:39:28;13.90;;;6.43;;
16352;SDS011;8286;51.274;9.542;2023-02-08T03:41:57;10.03;;;5.43;;
16352;SDS011;8286;51.274;9.542;2023-02-08T03:44:26;13.93;;;6.43;;
16352;SDS011;8286;51.274;9.542;2023-02-08T03:46:55;12.87;;;5.93;;
16352;SDS011;8286;51.274;9.542;2023-02-08T03:49:26;12.70;;;6.30;;
16352;SDS011;8286;51.274;9.542;2023-02-08T03:51:57;12.80;;;6.40;;
16352;SDS011;8286;51.274;9.542;2023-02-08T03:54:25;12.53;;;6.80;;
16352;SDS011;8286;51.274;9.542;2023-02-08T03:56:54;14.07;;;6.77;;
16352;SDS011;8286;51.274;9.542;2023-02-08T03:59:24;14.87;;;6.27;;
16352;SDS011;8286;51.274;9.542;2023-02-08T04:01:54;8.37;;;5.50;;
16352;SDS011;8286;51.274;9.542;2023-02-08T04:04:23;12.43;;;6.30;;
16352;SDS011;8286;51.274;9.542;2023-02-08T04:06:53;12.50;;;6.00;;
16352;SDS011;8286;51.274;9.542;2023-02-08T04:09:20;12.27;;;6.70;;
16352;SDS011;8286;51.274;9.542;2023-02-08T04:11:46;12.87;;;6.33;;
16352;SDS011;8286;51.274;9.542;2023-02-08T04:14:13;15.13;;;6.03;;
16352;SDS011;8286;51.274;9.542;2023-02-08T04:16:39;12.90;;;5.83;;
16352;SDS011;8286;51.274;9.542;2023-02-08T04:19:06;10.33;;;5.73;;
16352;SDS011;8286;51.274;9.542;2023-02-08T04:21:32;13.67;;;5.97;;
16352;SDS011;8286;51.274;9.542;2023-02-08T04:24:00;11.23;;;5.73;;
16352;SDS011;8286;51.274;9.542;2023-02-08T04:26:27;16.00;;;6.13;;
16352;SDS011;8286;51.274;9.542;2023-02-08T04:28:53;11.60;;;5.40;;
16352;SDS011;8286;51.274;9.542;2023-02-08T04:31:20;11.33;;;5.53;;
16352;SDS011;8286;51.274;9.542;2023-02-08T04:33:46;14.03;;;6.33;;
16352;SDS011;8286;51.274;9.542;2023-02-08T04:36:13;12.93;;;6.83;;
16352;SDS011;8286;51.274;9.542;2023-02-08T04:38:39;10.43;;;6.03;;
16352;SDS011;8286;51.274;9.542;2023-02-08T04:41:07;11.43;;;5.90;;
16352;SDS011;8286;51.274;9.542;2023-02-08T04:43:34;10.33;;;5.87;;
16352;SDS011;8286;51.274;9.542;2023-02-08T04:46:01;18.93;;;7.13;;
16352;SDS011;8286;51.274;9.542;2023-02-08T04:48:28;16.10;;;7.13;;
16352;SDS011;8286;51.274;9.542;2023-02-08T04:50:55;14.33;;;6.33;;
16352;SDS011;8286;51.274;9.542;2023-02-08T04:53:21;15.97;;;6.40;;
16352;SDS011;8286;51.274;9.542;2023-02-08T04:55:48;18.23;;;7.33;;
16352;SDS011;8286;51.274;9.542;2023-02-08T04:58:16;17.27;;;8.90;;
16352;SDS011;8286;51.274;9.542;2023-02-08T05:00:43;12.87;;;6.27;;
16352;SDS011;8286;51.274;9.542;2023-02-08T05:03:09;14.87;;;6.93;;
16352;SDS011;8286;51.274;9.542;2023-02-08T05:05:36;14.33;;;7.47;;
16352;SDS011;8286;51.274;9.542;2023-02-08T05:08:03;14.63;;;7.30;;
16352;SDS011;8286;51.274;9.542;2023-02-08T05:10:30;12.10;;;6.67;;
16352;SDS011;8286;51.274;9.542;2023-02-08T05:12:56;18.47;;;7.60;;
16352;SDS011;8286;51.274;9.542;2023-02-08T05:15:24;12.30;;;7.47;;
16352;SDS011;8286;51.274;9.542;2023-02-08T05:17:51;11.33;;;6.40;;
16352;SDS011;8286;51.274;9.542;2023-02-08T05:20:17;12.70;;;6.93;;
16352;SDS011;8286;51.274;9.542;2023-02-08T05:22:44;14.50;;;7.63;;
16352;SDS011;8286;51.274;9.542;2023-02-08T05:25:11;17.30;;;7.57;;
16352;SDS011;8286;51.274;9.542;2023-02-08T05:27:37;12.97;;;7.60;;
16352;SDS011;8286;51.274;9.542;2023-02-08T05:30:04;12.43;;;6.57;;
16352;SDS011;8286;51.274;9.542;2023-02-08T05:32:33;14.07;;;6.93;;
16352;SDS011;8286;51.274;9.542;2023-02-08T05:34:59;14.17;;;6.93;;
16352;SDS011;8286;51.274;9.542;2023-02-08T05:37:25;23.97;;;7.97;;
16352;SDS011;8286;51.274;9.542;2023-02-08T05:39:52;15.47;;;7.23;;
16352;SDS011;8286;51.274;9.542;2023-02-08T05:42:18;16.17;;;8.00;;
16352;SDS011;8286;51.274;9.542;2023-02-08T05:44:45;16.37;;;6.93;;
16352;SDS011;8286;51.274;9.542;2023-02-08T05:47:12;14.10;;;6.57;;
16352;SDS011;8286;51.274;9.542;2023-02-08T05:49:39;21.77;;;8.10;;
16352;SDS011;8286;51.274;9.542;2023-02-08T05:52:06;14.37;;;6.97;;
16352;SDS011;8286;51.274;9.542;2023-02-08T05:54:32;17.20;;;7.53;;
16352;SDS011;8286;51.274;9.542;2023-02-08T05:56:59;17.83;;;7.07;;
16352;SDS011;8286;51.274;9.542;2023-02-08T05:59:25;15.03;;;7.10;;
16352;SDS011;8286;51.274;9.542;2023-02-08T06:01:52;15.37;;;7.23;;
16352;SDS011;8286;51.274;9.542;2023-02-08T06:04:18;16.73;;;7.23;;
16352;SDS011;8286;51.274;9.542;2023-02-08T06:06:46;12.07;;;6.43;;
16352;SDS011;8286;51.274;9.542;2023-02-08T06:09:13;15.73;;;7.33;;
16352;SDS011;8286;51.274;9.542;2023-02-08T06:11:39;15.13;;;7.07;;
16352;SDS011;8286;51.274;9.542;2023-02-08T06:14:06;14.83;;;6.83;;
16352;SDS011;8286;51.274;9.542;2023-02-08T06:16:32;17.47;;;7.70;;
16352;SDS011;8286;51.274;9.542;2023-02-08T06:18:59;16.13;;;7.80;;
16352;SDS011;8286;51.274;9.542;2023-02-08T06:21:25;17.27;;;8.23;;
16352;SDS011;8286;51.274;9.542;2023-02-08T06:23:53;18.93;;;8.60;;
16352;SDS011;8286;51.274;9.542;2023-02-08T06:26:20;19.67;;;8.70;;
16352;SDS011;8286;51.274;9.542;2023-02-08T06:28:46;16.13;;;7.03;;
16352;SDS011;8286;51.274;9.542;2023-02-08T06:31:13;18.03;;;8.70;;
16352;SDS011;8286;51.274;9.542;2023-02-08T06:33:39;15.73;;;7.10;;
16352;SDS011;8286;51.274;9.542;2023-02-08T06:36:06;14.27;;;6.90;;
16352;SDS011;8286;51.274;9.542;2023-02-08T06:38:33;17.40;;;7.10;;
16352;SDS011;8286;51.274;9.542;2023-02-08T06:41:01;14.90;;;6.80;;
16352;SDS011;8286;51.274;9.542;2023-02-08T06:43:27;20.87;;;8.57;;
16352;SDS011;8286;51.274;9.542;2023-02-08T06:45:53;15.20;;;7.33;;
16352;SDS011;8286;51.274;9.542;2023-02-08T06:48:20;15.40;;;7.03;;
16352;SDS011;8286;51.274;9.542;2023-02-08T06:50:47;12.93;;;7.57;;
16352;SDS011;8286;51.274;9.542;2023-02-08T06:53:13;17.00;;;7.13;;
16352;SDS011;8286;51.274;9.542;2023-02-08T06:55:40;19.63;;;8.57;;
16352;SDS011;8286;51.274;9.542;2023-02-08T06:58:08;15.33;;;7.40;;
16352;SDS011;8286;51.274;9.542;2023-02-08T07:00:35;13.50;;;7.37;;
16352;SDS011;8286;51.274;9.542;2023-02-08T07:03:03;18.30;;;7.87;;
16352;SDS011;8286;51.274;9.542;2023-02-08T07:05:29;13.40;;;7.10;;
16352;SDS011;8286;51.274;9.542;2023-02-08T07:07:56;16.53;;;8.40;;
16352;SDS011;8286;51.274;9.542;2023-02-08T07:10:22;13.97;;;7.53;;
16352;SDS011;8286;51.274;9.542;2023-02-08T07:12:49;22.07;;;8.40;;
16352;SDS011;8286;51.274;9.542;2023-02-08T07:15:17;18.30;;;8.70;;
16352;SDS011;8286;51.274;9.542;2023-02-08T07:17:43;17.63;;;8.23;;
16352;SDS011;8286;51.274;9.542;2023-02-08T07:20:10;17.57;;;8.13;;
16352;SDS011;8286;51.274;9.542;2023-02-08T07:22:37;15.53;;;7.93;;
16352;SDS011;8286;51.274;9.542;2023-02-08T07:25:04;12.47;;;7.30;;
16352;SDS011;8286;51.274;9.542;2023-02-08T07:27:31;14.50;;;8.87;;
16352;SDS011;8286;51.274;9.542;2023-02-08T07:29:57;17.20;;;8.17;;
16352;SDS011;8286;51.274;9.542;2023-02-08T07:32:25;16.00;;;8.53;;
16352;SDS011;8286;51.274;9.542;2023-02-08T07:34:52;16.33;;;8.53;;
16352;SDS011;8286;51.274;9.542;2023-02-08T07:37:19;19.93;;;8.60;;
16352;SDS011;8286;51.274;9.542;2023-02-08T07:39:45;16.73;;;8.80;;
16352;SDS011;8286;51.274;9.542;2023-02-08T07:42:12;16.07;;;8.10;;
16352;SDS011;8286;51.274;9.542;2023-02-08T07:44:39;19.53;;;9.23;;
16352;SDS011;8286;51.274;9.542;2023-02-08T07:47:05;18.83;;;8.47;;
16352;SDS011;8286;51.274;9.542;2023-02-08T07:49:33;16.70;;;8.67;;
16352;SDS011;8286;51.274;9.542;2023-02-08T07:52:00;18.50;;;9.00;;
16352;SDS011;8286;51.274;9.542;2023-02-08T07:54:27;16.23;;;7.73;;
16352;SDS011;8286;51.274;9.542;2023-02-08T07:56:53;17.90;;;8.80;;
16352;SDS011;8286;51.274;9.542;2023-02-08T07:59:20;16.30;;;9.17;;
16352;SDS011;8286;51.274;9.542;2023-02-08T08:01:47;17.47;;;8.13;;
16352;SDS011;8286;51.274;9.542;2023-02-08T08:04:13;17.57;;;9.20;;
16352;SDS011;8286;51.274;9.542;2023-02-08T08:06:41;16.30;;;8.17;;
16352;SDS011;8286;51.274;9.542;2023-02-08T08:09:08;20.13;;;8.20;;
16352;SDS011;8286;51.274;9.542;2023-02-08T08:11:34;22.60;;;9.33;;
16352;SDS011;8286;51.274;9.542;2023-02-08T08:14:01;17.00;;;8.27;;
16352;SDS011;8286;51.274;9.542;2023-02-08T08:16:27;17.40;;;8.80;;
16352;SDS011;8286;51.274;9.542;2023-02-08T08:18:54;18.47;;;8.73;;
16352;SDS011;8286;51.274;9.542;2023-02-08T08:21:21;18.73;;;8.73;;
16352;SDS011;8286;51.274;9.542;2023-02-08T08:23:48;19.97;;;9.50;;
16352;SDS011;8286;51.274;9.542;2023-02-08T08:26:16;19.97;;;9.83;;
16352;SDS011;8286;51.274;9.542;2023-02-08T08:28:44;18.67;;;9.10;;
16352;SDS011;8286;51.274;9.542;2023-02-08T08:31:12;22.53;;;10.03;;
16352;SDS011;8286;51.274;9.542;2023-02-08T08:33:39;17.57;;;9.87;;
16352;SDS011;8286;51.274;9.542;2023-02-08T08:36:07;16.20;;;9.17;;
16352;SDS011;8286;51.274;9.542;2023-02-08T08:38:34;18.30;;;8.40;;
16352;SDS011;8286;51.274;9.542;2023-02-08T08:41:02;16.60;;;8.63;;
16352;SDS011;8286;51.274;9.542;2023-02-08T08:43:32;19.27;;;8.70;;
16352;SDS011;8286;51.274;9.542;2023-02-08T08:45:58;16.07;;;8.47;;
16352;SDS011;8286;51.274;9.542;2023-02-08T08:48:25;17.30;;;8.93;;
16352;SDS011;8286;51.274;9.542;2023-02-08T08:50:52;16.53;;;8.80;;
16352;SDS011;8286;51.274;9.542;2023-02-08T08:53:19;28.43;;;10.23;;
16352;SDS011;8286;51.274;9.542;2023-02-08T08:55:46;18.57;;;8.77;;
16352;SDS011;8286;51.274;9.542;2023-02-08T08:58:13;17.83;;;8.63;;
16352;SDS011;8286;51.274;9.542;2023-02-08T09:00:40;20.50;;;9.40;;
16352;SDS011;8286;51.274;9.542;2023-02-08T09:03:06;18.03;;;8.43;;
16352;SDS011;8286;51.274;9.542;2023-02-08T09:05:33;19.23;;;9.20;;
16352;SDS011;8286;51.274;9.542;2023-02-08T09:08:00;20.50;;;10.30;;
16352;SDS011;8286;51.274;9.542;2023-02-08T09:10:27;18.97;;;9.53;;
16352;SDS011;8286;51.274;9.542;2023-02-08T09:12:54;19.83;;;9.43;;
16352;SDS011;8286;51.274;9.542;2023-02-08T09:15:22;16.77;;;9.20;;
16352;SDS011;8286;51.274;9.542;2023-02-08T09:17:49;19.13;;;9.13;;
16352;SDS011;8286;51.274;9.542;2023-02-08T09:20:15;16.97;;;8.97;;
16352;SDS011;8286;51.274;9.542;2023-02-08T09:22:42;18.40;;;9.10;;
16352;SDS011;8286;51.274;9.542;2023-02-08T09:25:08;17.23;;;9.27;;
16352;SDS011;8286;51.274;9.542;2023-02-08T09:27:35;15.30;;;8.77;;
16352;SDS011;8286;51.274;9.542;2023-02-08T09:30:02;17.00;;;9.10;;
16352;SDS011;8286;51.274;9.542;2023-02-08T09:32:31;17.90;;;8.17;;
16352;SDS011;8286;51.274;9.542;2023-02-08T09:34:59;19.77;;;9.57;;
16352;SDS011;8286;51.274;9.542;2023-02-08T09:37:26;20.27;;;9.73;;
16352;SDS011;8286;51.274;9.542;2023-02-08T09:39:52;21.93;;;9.77;;
16352;SDS011;8286;51.274;9.542;2023-02-08T09:42:30;20.03;;;9.67;;
16352;SDS011;8286;51.274;9.542;2023-02-08T09:45:13;18.93;;;8.40;;
16352;SDS011;8286;51.274;9.542;2023-02-08T09:47:49;14.90;;;8.43;;
16352;SDS011;8286;51.274;9.542;2023-02-08T09:50:22;19.77;;;8.97;;
16352;SDS011;8286;51.274;9.542;2023-02-08T09:52:53;20.60;;;9.47;;
16352;SDS011;8286;51.274;9.542;2023-02-08T09:55:26;19.43;;;9.23;;
16352;SDS011;8286;51.274;9.542;2023-02-08T09:57:55;18.23;;;10.00;;
16352;SDS011;8286;51.274;9.542;2023-02-08T10:00:24;18.93;;;9.97;;
16352;SDS011;8286;51.274;9.542;2023-02-08T10:02:57;24.23;;;10.83;;
16352;SDS011;8286;51.274;9.542;2023-02-08T10:05:25;18.40;;;9.67;;
16352;SDS011;8286;51.274;9.542;2023-02-08T10:07:52;21.07;;;10.50;;
16352;SDS011;8286;51.274;9.542;2023-02-08T10:10:24;18.43;;;9.20;;
16352;SDS011;8286;51.274;9.542;2023-02-08T10:13:05;19.90;;;9.23;;
16352;SDS011;8286;51.274;9.542;2023-02-08T10:15:39;18.17;;;9.07;;
16352;SDS011;8286;51.274;9.542;2023-02-08T10:18:13;18.73;;;8.93;;
16352;SDS011;8286;51.274;9.542;2023-02-08T10:20:55;22.27;;;9.50;;
16352;SDS011;8286;51.274;9.542;2023-02-08T10:23:45;23.60;;;10.40;;
16352;SDS011;8286;51.274;9.542;2023-02-08T10:26:22;20.47;;;9.63;;
16352;SDS011;8286;51.274;9.542;2023-02-08T10:29:13;21.87;;;10.43;;
16352;SDS011;8286;51.274;9.542;2023-02-08T10:31:49;17.83;;;9.80;;
16352;SDS011;8286;51.274;9.542;2023-02-08T10:34:29;21.10;;;10.23;;
16352;SDS011;8286;51.274;9.542;2023-02-08T10:37:05;20.90;;;10.87;;
16352;SDS011;8286;51.274;9.542;2023-02-08T10:39:38;22.30;;;11.13;;
16352;SDS011;8286;51.274;9.542;2023-02-08T10:42:05;21.13;;;10.10;;
16352;SDS011;8286;51.274;9.542;2023-02-08T10:44:39;19.40;;;10.57;;
16352;SDS011;8286;51.274;9.542;2023-02-08T10:47:16;21.67;;;11.47;;
16352;SDS011;8286;51.274;9.542;2023-02-08T10:49:49;17.57;;;9.47;;
16352;SDS011;8286;51.274;9.542;2023-02-08T10:52:20;21.63;;;10.53;;
16352;SDS011;8286;51.274;9.542;2023-02-08T10:54:46;18.07;;;10.00;;
16352;SDS011;8286;51.274;9.542;2023-02-08T10:57:13;20.00;;;10.97;;
16352;SDS011;8286;51.274;9.542;2023-02-08T10:59:45;21.97;;;11.50;;
16352;SDS011;8286;51.274;9.542;2023-02-08T11:02:16;19.63;;;11.33;;
16352;SDS011;8286;51.274;9.542;2023-02-08T11:04:57;23.70;;;11.13;;
16352;SDS011;8286;51.274;9.542;2023-02-08T11:07:25;25.43;;;10.70;;
16352;SDS011;8286;51.274;9.542;2023-02-08T11:09:51;19.20;;;11.13;;
16352;SDS011;8286;51.274;9.542;2023-02-08T11:12:18;16.73;;;9.30;;
16352;SDS011;8286;51.274;9.542;2023-02-08T11:14:47;17.77;;;10.07;;
16352;SDS011;8286;51.274;9.542;2023-02-08T11:17:21;21.97;;;10.87;;
16352;SDS011;8286;51.274;9.542;2023-02-08T11:19:50;16.47;;;10.00;;
16352;SDS011;8286;51.274;9.542;2023-02-08T11:22:19;13.93;;;9.67;;
16352;SDS011;8286;51.274;9.542;2023-02-08T11:24:53;17.87;;;11.00;;
16352;SDS011;8286;51.274;9.542;2023-02-08T11:27:28;18.93;;;10.63;;
16352;SDS011;8286;51.274;9.542;2023-02-08T11:30:09;21.17;;;11.27;;
16352;SDS011;8286;51.274;9.542;2023-02-08T11:32:45;18.97;;;10.67;;
16352;SDS011;8286;51.274;9.542;2023-02-08T11:35:20;16.67;;;9.60;;
16352;SDS011;8286;51.274;9.542;2023-02-08T11:37:50;14.27;;;9.85;;
16352;SDS011;8286;51.274;9.542;2023-02-08T11:40:18;16.17;;;10.85;;
16352;SDS011;8286;51.274;9.542;2023-02-08T11:42:47;17.27;;;10.88;;
16352;SDS011;8286;51.274;9.542;2023-02-08T11:45:17;18.98;;;11.10;;
16352;SDS011;8286;51.274;9.542;2023-02-08T11:47:46;15.80;;;10.73;;
16352;SDS011;8286;51.274;9.542;2023-02-08T11:50:20;16.00;;;10.43;;
16352;SDS011;8286;51.274;9.542;2023-02-08T11:52:52;15.87;;;10.17;;
16352;SDS011;8286;51.274;9.542;2023-02-08T11:55:22;16.73;;;9.23;;
16352;SDS011;8286;51.274;9.542;2023-02-08T11:57:50;14.00;;;9.80;;
16352;SDS011;8286;51.274;9.542;2023-02-08T12:00:19;15.37;;;9.27;;
16352;SDS011;8286;51.274;9.542;2023-02-08T12:02:47;14.87;;;9.30;;
16352;SDS011;8286;51.274;9.542;2023-02-08T12:05:16;15.30;;;10.00;;
16352;SDS011;8286;51.274;9.542;2023-02-08T12:07:46;14.60;;;9.47;;
16352;SDS011;8286;51.274;9.542;2023-02-08T12:10:20;13.63;;;8.80;;
16352;SDS011;8286;51.274;9.542;2023-02-08T12:13:25;13.83;;;8.90;;
16352;SDS011;8286;51.274;9.542;2023-02-08T12:16:13;16.87;;;9.40;;
16352;SDS011;8286;51.274;9.542;2023-02-08T12:18:52;15.20;;;9.80;;
16352;SDS011;8286;51.274;9.542;2023-02-08T12:21:40;18.73;;;10.27;;
16352;SDS011;8286;51.274;9.542;2023-02-08T12:24:10;15.77;;;9.43;;
16352;SDS011;8286;51.274;9.542;2023-02-08T12:26:45;16.07;;;9.60;;
16352;SDS011;8286;51.274;9.542;2023-02-08T12:29:21;17.43;;;9.33;;
16352;SDS011;8286;51.274;9.542;2023-02-08T12:31:59;15.13;;;9.57;;
16352;SDS011;8286;51.274;9.542;2023-02-08T12:34:33;14.30;;;9.07;;
16352;SDS011;8286;51.274;9.542;2023-02-08T12:37:29;14.03;;;9.23;;
16352;SDS011;8286;51.274;9.542;2023-02-08T12:40:33;19.43;;;10.60;;
16352;SDS011;8286;51.274;9.542;2023-02-08T12:43:18;14.77;;;9.13;;
16352;SDS011;8286;51.274;9.542;2023-02-08T12:46:07;14.93;;;8.70;;
16352;SDS011;8286;51.274;9.542;2023-02-08T12:48:39;14.80;;;8.50;;
16352;SDS011;8286;51.274;9.542;2023-02-08T12:51:16;14.63;;;8.90;;
16352;SDS011;8286;51.274;9.542;2023-02-08T12:53:48;12.83;;;7.90;;
16352;SDS011;8286;51.274;9.542;2023-02-08T12:56:17;16.03;;;9.30;;
16352;SDS011;8286;51.274;9.542;2023-02-08T12:58:48;13.33;;;7.80;;
16352;SDS011;8286;51.274;9.542;2023-02-08T13:01:17;15.90;;;9.53;;
16352;SDS011;8286;51.274;9.542;2023-02-08T13:03:46;16.37;;;9.57;;
16352;SDS011;8286;51.274;9.542;2023-02-08T13:06:17;16.80;;;8.40;;
16352;SDS011;8286;51.274;9.542;2023-02-08T13:08:47;15.87;;;8.53;;
16352;SDS011;8286;51.274;9.542;2023-02-08T13:11:17;13.27;;;7.50;;
16352;SDS011;8286;51.274;9.542;2023-02-08T13:13:50;13.30;;;7.90;;
16352;SDS011;8286;51.274;9.542;2023-02-08T13:16:21;13.23;;;7.67;;
16352;SDS011;8286;51.274;9.542;2023-02-08T13:18:51;12.53;;;7.13;;
16352;SDS011;8286;51.274;9.542;2023-02-08T13:21:21;11.10;;;7.00;;
16352;SDS011;8286;51.274;9.542;2023-02-08T13:23:49;11.00;;;6.90;;
16352;SDS011;8286;51.274;9.542;2023-02-08T13:26:17;15.37;;;7.37;;
16352;SDS011;8286;51.274;9.542;2023-02-08T13:28:47;11.77;;;7.10;;
16352;SDS011;8286;51.274;9.542;2023-02-08T13:31:16;10.03;;;6.47;;
16352;SDS011;8286;51.274;9.542;2023-02-08T13:33:45;10.50;;;7.20;;
16352;SDS011;8286;51.274;9.542;2023-02-08T13:36:18;11.87;;;7.00;;
16352;SDS011;8286;51.274;9.542;2023-02-08T13:38:46;13.50;;;7.50;;
16352;SDS011;8286;51.274;9.542;2023-02-08T13:41:13;11.97;;;7.27;;
16352;SDS011;8286;51.274;9.542;2023-02-08T13:43:42;11.50;;;6.70;;
16352;SDS011;8286;51.274;9.542;2023-02-08T13:46:14;11.60;;;6.93;;
16352;SDS011;8286;51.274;9.542;2023-02-08T13:48:42;9.10;;;5.67;;
16352;SDS011;8286;51.274;9.542;2023-02-08T13:54:16;16.87;;;8.07;;
16352;SDS011;8286;51.274;9.542;2023-02-08T13:56:44;13.33;;;7.43;;
16352;SDS011;8286;51.274;9.542;2023-02-08T13:59:23;13.37;;;7.57;;
16352;SDS011;8286;51.274;9.542;2023-02-08T14:04:47;14.50;;;8.23;;
16352;SDS011;8286;51.274;9.542;2023-02-08T14:07:15;10.37;;;6.17;;
16352;SDS011;8286;51.274;9.542;2023-02-08T14:09:51;8.67;;;4.57;;
16352;SDS011;8286;51.274;9.542;2023-02-08T14:12:27;6.33;;;3.63;;
16352;SDS011;8286;51.274;9.542;2023-02-08T14:15:16;8.77;;;4.20;;
16352;SDS011;8286;51.274;9.542;2023-02-08T14:18:20;7.23;;;4.73;;
16352;SDS011;8286;51.274;9.542;2023-02-08T14:20:58;7.33;;;4.13;;
16352;SDS011;8286;51.274;9.542;2023-02-08T14:23:27;5.47;;;3.70;;
16352;SDS011;8286;51.274;9.542;2023-02-08T14:25:55;7.03;;;4.10;;
16352;SDS011;8286;51.274;9.542;2023-02-08T14:28:27;6.60;;;4.10;;
16352;SDS011;8286;51.274;9.542;2023-02-08T14:30:56;9.43;;;4.20;;
16352;SDS011;8286;51.274;9.542;2023-02-08T14:33:25;5.73;;;4.07;;
16352;SDS011;8286;51.274;9.542;2023-02-08T14:35:54;5.53;;;3.40;;
16352;SDS011;8286;51.274;9.542;2023-02-08T14:38:32;7.57;;;4.27;;
16352;SDS011;8286;51.274;9.542;2023-02-08T14:50:41;6.83;;;4.10;;
16352;SDS011;8286;51.274;9.542;2023-02-08T14:53:26;8.33;;;4.13;;
16352;SDS011;8286;51.274;9.542;2023-02-08T14:55:58;6.07;;;3.50;;
16352;SDS011;8286;51.274;9.542;2023-02-08T14:58:28;6.67;;;3.93;;
16352;SDS011;8286;51.274;9.542;2023-02-08T15:00:56;8.23;;;4.17;;
16352;SDS011;8286;51.274;9.542;2023-02-08T15:03:26;7.23;;;3.57;;
16352;SDS011;8286;51.274;9.542;2023-02-08T15:06:10;5.00;;;3.47;;
16352;SDS011;8286;51.274;9.542;2023-02-08T15:08:54;6.37;;;3.70;;
16352;SDS011;8286;51.274;9.542;2023-02-08T15:11:21;3.63;;;2.90;;
16352;SDS011;8286;51.274;9.542;2023-02-08T15:13:50;9.97;;;3.43;;
16352;SDS011;8286;51.274;9.542;2023-02-08T15:16:19;6.63;;;3.20;;
16352;SDS011;8286;51.274;9.542;2023-02-08T15:18:46;6.07;;;2.97;;
16352;SDS011;8286;51.274;9.542;2023-02-08T15:21:16;3.70;;;3.00;;
16352;SDS011;8286;51.274;9.542;2023-02-08T15:23:56;5.50;;;3.30;;
16352;SDS011;8286;51.274;9.542;2023-02-08T15:26:23;4.90;;;2.90;;